Ron Brown — WTEC — position and weather

sailwx.info

Track history (hours):
 
Tides and Currents Weather Stations Pressure Air Temp Water Temp Dewpoint Dewpoint Depression Visibility Wind Speed Wind Dir Waves Ship Positions

Oceanographic research ship Ron Brown (USA)

Detailed information on ship capabilities available from University of Delaware's Ocean Information Center.

Owner: UNIVERSITY OF SOUTHERN CALIFORNIA, TERMINAL ISLAND, CA. More information available from US FCC via Universal Licensing System and Coast Guard Vessel Documentation Center.

Last reported at 2017-May-22 11:58 UTC. Time now 2017-May-25 18:11 UTC.
Position S 18°24' W 070°18'.

Type: Other ship. MMSI: 368996000.

Wind from 080 at 1 knots

Barometer 1014.6 mb
Air temperature 17.8 ° C

Date/timePositionNaut miles runAvg speedWind from/ knotsBaromVisibWave heightAir tempDewpointWater temp
2017-May-22 11:58S 18°24' W 070°18'0 0.0 080 / 11014.6 17.8
2017-May-22 10:59S 18°24' W 070°18'0 0.0 170 / 21014.4 17.9
2017-May-22 10:00S 18°24' W 070°18'0 0.0 020 / 41013.8 18.0
2017-May-22 08:49S 18°24' W 070°18'0 0.0 120 / 71013.8 18.4
2017-May-22 07:50S 18°24' W 070°18'0 0.0 180 / 41015.1 18.1
2017-May-22 06:51S 18°24' W 070°18'0 0.0 230 / 21014.8 18.6
2017-May-22 05:52S 18°24' W 070°18'0 0.0 190 / 51014.9 18.7
2017-May-22 04:53S 18°24' W 070°18'0 0.0 160 / 21015.5 19.1
2017-May-22 03:53S 18°24' W 070°18'0 0.0 110 / 41016.7 18.4
2017-May-22 02:54S 18°24' W 070°18'0 0.0 290 / 21017.5 18.0
2017-May-22 01:55S 18°24' W 070°18'0 0.0 040 / 11017.0 18.3
2017-May-22 00:56S 18°24' W 070°18'0 0.0 360 / 31016.4 18.0
2017-May-21 22:57S 18°24' W 070°18'0 0.0 200 / 11014.8 17.7
2017-May-21 21:58S 18°24' W 070°18'0 0.0 230 / 31013.5 18.0
2017-May-21 20:59S 18°24' W 070°18'0 0.0 250 / 41012.9 18.8
2017-May-21 20:00S 18°24' W 070°18'0 0.0 220 / 61012.1 18.1
2017-May-21 18:49S 18°24' W 070°18'0 0.0 220 / 61012.1 18.7
2017-May-21 17:50S 18°24' W 070°18'0 0.0 230 / 41012.6 19.0
2017-May-21 16:51S 18°24' W 070°18'0 0.0 250 / 21013.4 20.4
2017-May-21 15:52S 18°24' W 070°18'0 0.0 250 / 21013.8 18.9
2017-May-21 14:52S 18°24' W 070°18'0 0.0 250 / 21014.1 18.7
2017-May-21 13:53S 18°24' W 070°18'0 0.0 250 / 11014.0 17.6
2017-May-21 12:54S 18°24' W 070°18'0 0.0 110 / 51013.8 18.3
2017-May-21 11:55S 18°24' W 070°18'0 0.0 130 / 51012.9 17.6
2017-May-21 10:56S 18°24' W 070°18'0 0.0 130 / 51012.3 17.3
2017-May-21 09:56S 18°24' W 070°18'0 0.0 150 / 71012.0 16.9
2017-May-21 08:57S 18°24' W 070°18'0 0.0 140 / 71012.4 17.1
2017-May-21 07:58S 18°24' W 070°18'0 0.0 120 / 61012.9 17.6
2017-May-21 06:59S 18°24' W 070°18'0 0.0 170 / 21013.9 17.5
2017-May-21 06:00S 18°24' W 070°18'0 0.0 200 / 61014.7 18.0
2017-May-21 04:49S 18°24' W 070°18'0 0.0 140 / 41015.1 18.0
2017-May-21 03:50S 18°24' W 070°18'0 0.0 110 / 51015.5 17.4
2017-May-21 02:51S 18°24' W 070°18'0 0.0 080 / 51015.9 16.9
2017-May-21 01:52S 18°24' W 070°18'0 0.0 340 / 81015.4 17.2
2017-May-21 00:53S 18°24' W 070°18'0 0.0 170 / 51015.2 17.7
2017-May-20 22:54S 18°24' W 070°18'0 0.0 190 / 141014.3 17.8
2017-May-20 21:55S 18°24' W 070°18'0 0.0 180 / 141013.5 18.1
2017-May-20 20:56S 18°24' W 070°18'0 0.0 200 / 171013.0 18.2
2017-May-20 19:57S 18°24' W 070°18'0 0.0 190 / 161012.7 18.3
2017-May-20 18:57S 18°24' W 070°18'0 0.0 190 / 141013.2 18.4
2017-May-20 17:58S 18°24' W 070°18'0 0.0 210 / 111014.0 18.4
2017-May-20 16:59S 18°24' W 070°18'0 0.0 210 / 111014.3 18.5
2017-May-20 16:00S 18°24' W 070°18'24 5.9 230 / 81014.9 18.4
2017-May-20 12:00S 18°30' W 070°42'0 0.0 060 / 91015.7 5.4 19.216.620.8
2017-May-20 11:51S 18°30' W 070°42'0 0.0 130 / 21015.7 19.1 20.8
2017-May-20 10:52S 18°30' W 070°42'0 0.0 140 / 31015.1 18.9 20.7
2017-May-20 09:53S 18°30' W 070°42'0 0.0 090 / 51014.5 19.5 20.6
2017-May-20 08:54S 18°30' W 070°42'0 0.0 140 / 81014.4 19.6 20.8
2017-May-20 07:54S 18°30' W 070°42'0 0.0 150 / 81014.9 19.5 20.9
2017-May-20 06:55S 18°30' W 070°42'0 0.0 160 / 101015.5 19.3 20.9
2017-May-20 06:00S 18°30' W 070°42'0 0.0 130 / 91015.7 5.4 19.217.121.7
2017-May-20 05:56S 18°30' W 070°42'6 5.8 150 / 101015.9 19.4 21.0
2017-May-20 04:57S 18°30' W 070°48'1111.4 150 / 91015.9 19.6 21.6
2017-May-20 03:57S 18°30' W 071°00'1111.6 160 / 101016.1 19.1 20.8
2017-May-20 02:58S 18°30' W 071°12'1111.6 130 / 101016.2 19.4 20.0
2017-May-20 01:59S 18°30' W 071°24'1111.6 140 / 101015.9 19.7 21.8
2017-May-20 01:00S 18°30' W 071°36'6 5.7 120 / 91015.2 19.7 21.9
2017-May-20 00:00S 18°30' W 071°42'1817.0 120 / 91015.2 5.4 19.916.221.9
2017-May-19 22:56S 18°36' W 072°00'1111.6 120 / 131014.4 20.1 21.9
2017-May-19 21:57S 18°36' W 072°12'6 5.8 150 / 121014.4 20.4 22.5
2017-May-19 20:58S 18°36' W 072°18'1111.6 160 / 161014.0 20.1 22.3
2017-May-19 19:59S 18°36' W 072°30'1111.4 160 / 171013.6 20.2 22.1
2017-May-19 18:59S 18°36' W 072°42'1313.1 160 / 191013.7 20.3 22.2
2017-May-19 18:00S 18°42' W 072°54'0 0.0 160 / 191014.510.8 20.316.022.2
2017-May-19 17:57S 18°42' W 072°54'1111.6 160 / 171014.2 20.3 22.2
2017-May-19 16:58S 18°42' W 073°06'1111.4 150 / 181015.3 20.3 22.2
2017-May-19 15:58S 18°42' W 073°18'1313.1 160 / 181015.6 20.3 21.6
2017-May-19 14:59S 18°48' W 073°30'1714.8 160 / 201016.0 19.8 21.4
2017-May-19 13:50S 18°48' W 073°48'6 5.7 140 / 201015.4 20.0 21.9
2017-May-19 12:50S 18°48' W 073°54'1315.4 140 / 171015.3 20.0 21.7
2017-May-19 12:00S 18°42' W 074°06'0 0.0 150 / 191014.510.8 20.116.621.8
2017-May-19 11:51S 18°42' W 074°06'1313.1 150 / 201014.7 20.1 21.8
2017-May-19 10:52S 18°48' W 074°18'1111.6 150 / 211013.8 19.7 21.6
2017-May-19 09:53S 18°48' W 074°30'1111.4 150 / 231013.5 19.7 22.0
2017-May-19 08:53S 18°48' W 074°42'1111.6 150 / 191013.9 19.3 21.9
2017-May-19 07:54S 18°48' W 074°54'6 5.8 140 / 221014.2 19.9 21.8
2017-May-19 06:55S 18°48' W 075°00'1112.4 140 / 221014.3 19.9 22.0
2017-May-19 06:00S 18°48' W 075°12'0 0.0 140 / 241014.8 5.4 19.915.722.1
2017-May-19 05:55S 18°48' W 075°12'1111.6 130 / 201014.7 20.1 21.7
2017-May-19 04:56S 18°48' W 075°24'1313.1 130 / 221015.3 20.1 21.7
2017-May-19 03:57S 18°54' W 075°36'1111.5 140 / 221015.8 20.2 21.8
2017-May-19 02:58S 18°54' W 075°48'1111.4 140 / 221015.9 20.3 22.2
2017-May-19 01:58S 18°54' W 076°00'1111.5 140 / 261015.7 20.3 22.2
2017-May-19 00:59S 18°54' W 076°12'1111.5 140 / 251015.2 20.3 22.0
2017-May-19 00:00S 18°54' W 076°24'1110.8 150 / 241015.0 5.4 20.515.022.1
2017-May-18 22:57S 18°54' W 076°36'8 8.4 150 / 261014.7 20.3 22.0
2017-May-18 21:58S 19°00' W 076°42'1111.3 140 / 221015.0 20.4 22.0
2017-May-18 20:58S 19°00' W 076°54'1111.5 140 / 221015.1 20.5 22.1
2017-May-18 19:59S 19°00' W 077°06'1111.5 140 / 221015.3 20.5 22.1
2017-May-18 19:00S 19°00' W 077°18'1111.3 120 / 201015.9 20.6 22.3
2017-May-18 18:00S 19°00' W 077°30'1111.3 130 / 191016.0 20.7 22.2
2017-May-18 17:00S 19°00' W 077°42'1111.3 130 / 221016.7 20.7 22.4
2017-May-18 16:00S 19°00' W 077°54'8 8.3 130 / 221017.6 20.6 22.4
2017-May-18 15:00S 19°06' W 078°00'1111.3 140 / 231018.0 20.6 22.5
2017-May-18 14:00S 19°06' W 078°12'1111.3 130 / 201018.1 20.7 22.6
2017-May-18 13:00S 19°06' W 078°24'1111.3 140 / 191017.9 20.8 22.5
2017-May-18 12:00S 19°06' W 078°36'1111.3 130 / 191017.310.8 20.614.722.5
2017-May-18 11:00S 19°06' W 078°48'1111.3 130 / 231017.1 20.5 22.6
2017-May-18 10:00S 19°06' W 079°00'1312.8 130 / 211016.4 20.3 22.5
2017-May-18 09:00S 19°12' W 079°12'1111.3 130 / 221016.8 20.3 22.5
2017-May-18 08:00S 19°12' W 079°24'1111.3 130 / 211016.7 20.3 22.5
2017-May-18 07:00S 19°12' W 079°36'1111.3 120 / 191017.5 20.5 22.5
2017-May-18 06:00S 19°12' W 079°48'1111.3 130 / 201018.1 20.5 22.4
2017-May-18 05:00S 19°12' W 080°00'1111.3 130 / 191018.4 20.6 22.7
2017-May-18 04:00S 19°12' W 080°12'1312.8 130 / 201018.7 20.5 22.8
2017-May-18 03:00S 19°18' W 080°24'1111.3 130 / 211018.6 20.7 22.9
2017-May-18 02:00S 19°18' W 080°36'1111.3 140 / 221018.4 20.7 22.7
2017-May-18 01:00S 19°18' W 080°48'1111.3 150 / 221018.2 20.8 22.7
2017-May-18 00:00S 19°18' W 081°00'1111.3 150 / 221017.8 20.8 22.7
2017-May-17 23:00S 19°18' W 081°12'1111.3 150 / 161017.4 20.9 22.7
2017-May-17 22:00S 19°18' W 081°24'1111.3 140 / 171017.0 21.1 23.0
2017-May-17 21:00S 19°18' W 081°36'1312.8 140 / 171017.0 21.2 22.8
2017-May-17 20:00S 19°24' W 081°48'6 5.7 140 / 161017.4 20.9 22.5
2017-May-17 19:00S 19°24' W 081°54'1111.3 130 / 151017.9 20.9 22.6
2017-May-17 18:00S 19°24' W 082°06'1111.3 120 / 161018.7 21.0 22.6
2017-May-17 17:00S 19°24' W 082°18'1111.3 120 / 151019.0 21.0 22.6
2017-May-17 16:00S 19°24' W 082°30'1111.3 120 / 161019.7 21.0 22.2
2017-May-17 15:00S 19°24' W 082°42'1111.3 120 / 161020.0 20.9 22.0
2017-May-17 14:00S 19°24' W 082°54'1111.3 120 / 161019.5 21.0 22.0
2017-May-17 13:00S 19°24' W 083°06'8 8.2 130 / 181019.2 20.9 22.1
2017-May-17 12:00S 19°30' W 083°12'1111.3 130 / 191018.010.8 20.615.222.0
2017-May-17 11:00S 19°30' W 083°24'1111.3 110 / 171017.4 20.6 22.3
2017-May-17 10:00S 19°30' W 083°36'1111.3 140 / 161017.2 20.6 22.3
2017-May-17 09:00S 19°30' W 083°48'1111.3 130 / 181017.5 20.8 22.3
2017-May-17 08:00S 19°30' W 084°00'1312.8 130 / 201017.6 20.7 22.3
2017-May-17 07:00S 19°36' W 084°12'1111.3 140 / 171017.9 21.0 22.3
2017-May-17 06:00S 19°36' W 084°24'1111.3 130 / 201018.3 21.0 22.6
2017-May-17 05:00S 19°36' W 084°36'1212.0 120 / 211018.8 21.0 22.6
2017-May-17 04:00S 19°24' W 084°36'6 6.0 110 / 231019.1 20.8 22.4
2017-May-17 03:00S 19°18' W 084°36'8 8.3 110 / 141019.1 21.0 22.4
2017-May-17 02:00S 19°12' W 084°42'1111.3 110 / 191018.7 21.1 22.5
2017-May-17 01:00S 19°12' W 084°54'1111.3 120 / 141018.2 21.1 22.9
2017-May-17 00:00S 19°12' W 085°06'1111.3 150 / 91017.9 20.8 23.0
2017-May-16 23:00S 19°12' W 085°18'1312.8 110 / 141017.3 20.6 22.6
2017-May-16 22:00S 19°18' W 085°06'8 8.2 120 / 91017.4 21.1 22.9
2017-May-16 21:00S 19°24' W 085°00'0 0.0 100 / 101017.3 20.3 23.0
2017-May-16 20:00S 19°24' W 085°00'6 5.7 080 / 171017.8 20.8 23.0
2017-May-16 19:00S 19°24' W 085°06'0 0.0 120 / 101018.4 21.6 22.9
2017-May-16 18:00S 19°24' W 085°06'0 0.0 140 / 131019.210.8 21.518.023.0
2017-May-16 17:00S 19°24' W 085°06'0 0.0 120 / 101019.9 21.6 22.9
2017-May-16 16:00S 19°24' W 085°06'0 0.0 130 / 111020.5 21.5 22.8
2017-May-16 15:00S 19°24' W 085°06'0 0.0 130 / 141020.4 21.5 22.8
2017-May-16 14:00S 19°24' W 085°06'0 0.0 110 / 141020.2 21.5 22.8
2017-May-16 13:00S 19°24' W 085°06'6 5.7 120 / 141019.5 21.3 22.8
2017-May-16 12:00S 19°24' W 085°00'0 0.0 080 / 131018.6 20.5 22.8
2017-May-16 11:00S 19°24' W 085°00'0 0.0 130 / 81018.3 20.2 22.8
2017-May-16 10:00S 19°24' W 085°00'0 0.0 140 / 91018.6 20.4 22.8
2017-May-16 09:00S 19°24' W 085°00'0 0.0 100 / 101018.5 20.1 22.8
2017-May-16 08:00S 19°24' W 085°00'0 0.0 130 / 141018.8 20.2 22.8
2017-May-16 07:00S 19°24' W 085°00'0 0.0 110 / 101019.0 21.2 22.8
2017-May-16 06:00S 19°24' W 085°00'0 0.0 100 / 111019.5 21.2 22.8
2017-May-16 05:00S 19°24' W 085°00'0 0.0 120 / 131019.8 21.3 22.8
2017-May-16 04:00S 19°24' W 085°00'0 0.0 110 / 141019.4 21.3 22.8
2017-May-16 03:00S 19°24' W 085°00'0 0.0 110 / 151019.8 21.4 22.8
2017-May-16 02:00S 19°24' W 085°00'6 6.0 120 / 121019.5 21.3 22.8
2017-May-16 01:00S 19°30' W 085°00'8 8.2 120 / 131018.7 21.2 23.1
2017-May-16 00:00S 19°36' W 084°54'6 6.0 120 / 131018.7 5.4 21.317.523.0
2017-May-15 23:00S 19°42' W 084°54'0 0.0 120 / 121018.4 21.3 23.0
2017-May-15 22:00S 19°42' W 084°54'0 0.0 120 / 111018.0 21.5 23.0
2017-May-15 21:00S 19°42' W 084°54'0 0.0 130 / 131018.0 21.6 23.0
2017-May-15 20:00S 19°42' W 084°54'0 0.0 120 / 121018.2 21.7 23.0
2017-May-15 19:00S 19°42' W 084°54'6 5.6 120 / 101018.9 22.5 23.0
2017-May-15 18:00S 19°42' W 084°48'0 0.0 120 / 151019.4 22.8 23.0
2017-May-15 17:00S 19°42' W 084°48'0 0.0 110 / 131020.1 22.8 23.0
2017-May-15 16:00S 19°42' W 084°48'0 0.0 110 / 171020.8 22.6 22.9
2017-May-15 15:00S 19°42' W 084°48'6 5.6 150 / 101020.9 21.7 22.9
2017-May-15 14:00S 19°42' W 084°54'6 5.6 110 / 171020.4 21.5 22.9
2017-May-15 13:00S 19°42' W 084°48'0 0.0 100 / 141020.1 21.1 22.9
2017-May-15 12:00S 19°42' W 084°48'0 0.0 090 / 201019.0 5.4 20.517.822.9
2017-May-15 11:00S 19°42' W 084°48'0 0.0 110 / 181019.0 21.0 22.9
2017-May-15 10:00S 19°42' W 084°48'0 0.0 110 / 171018.8 21.2 23.0
2017-May-15 09:00S 19°42' W 084°48'0 0.0 130 / 151019.1 21.2 23.0
2017-May-15 08:00S 19°42' W 084°48'0 0.0 130 / 181019.4 20.7 23.0
2017-May-15 07:00S 19°42' W 084°48'6 5.6 120 / 161019.8 21.2 23.0
2017-May-15 06:00S 19°42' W 084°54'6 5.6 120 / 191020.1 5.4 21.516.723.0
2017-May-15 05:00S 19°42' W 084°48'0 0.0 150 / 171020.6 20.5 23.0
2017-May-15 04:00S 19°42' W 084°48'0 0.0 110 / 161020.7 21.4 23.0
2017-May-15 03:00S 19°42' W 084°48'0 0.0 120 / 171020.5 21.4 23.0
2017-May-15 02:00S 19°42' W 084°48'6 5.6 140 / 141020.1 21.2 23.0
2017-May-15 01:00S 19°42' W 084°54'0 0.0 120 / 131019.4 21.7 23.0
2017-May-15 00:00S 19°42' W 084°54'0 0.0 120 / 121018.7 21.8 23.0
2017-May-14 23:00S 19°42' W 084°54'6 6.0 110 / 131018.2 21.6 23.0
2017-May-14 22:00S 19°36' W 084°54'0 0.0 100 / 101017.9 21.8 23.0
2017-May-14 21:00S 19°36' W 084°54'0 0.0 110 / 131017.7 21.9 23.1
2017-May-14 20:00S 19°36' W 084°54'6 6.0 110 / 91017.8 21.7 23.1
2017-May-14 19:00S 19°42' W 084°54'0 0.0 120 / 121018.5 22.1 23.0
2017-May-14 18:00S 19°42' W 084°54'6 5.6 110 / 161018.8 21.5 22.6
2017-May-14 17:00S 19°42' W 084°48'6 6.0 120 / 91019.3 20.9 23.0
2017-May-14 16:00S 19°36' W 084°48'6 2.8 130 / 201019.5 20.5 23.0
2017-May-14 14:00S 19°36' W 084°54'0 0.0 130 / 181018.8 21.5 23.0
2017-May-14 13:00S 19°36' W 084°54'0 0.0 110 / 171018.0 21.7 23.0
2017-May-14 12:00S 19°36' W 084°54'0 0.0 130 / 171017.5 21.3 23.0
2017-May-14 11:00S 19°36' W 084°54'0 0.0 130 / 121017.0 20.4 23.0
2017-May-14 10:00S 19°36' W 084°54'0 0.0 110 / 161016.7 21.2 23.0
2017-May-14 09:00S 19°36' W 084°54'0 0.0 170 / 141016.7 20.7 23.0
2017-May-14 08:00S 19°36' W 084°54'0 0.0 140 / 141017.1 21.3 23.0
2017-May-14 07:00S 19°36' W 084°54'0 0.0 150 / 171017.7 21.2 23.0
2017-May-14 06:00S 19°36' W 084°54'0 0.0 140 / 151017.9 21.1 23.0
2017-May-14 05:00S 19°36' W 084°54'0 0.0 150 / 181018.0 21.1 23.0
2017-May-14 04:00S 19°36' W 084°54'0 0.0 150 / 151017.9 21.2 23.0
2017-May-14 03:00S 19°36' W 084°54'0 0.0 150 / 141017.9 21.3 23.0
2017-May-14 02:00S 19°36' W 084°54'6 6.1 120 / 141017.6 21.3 23.0
2017-May-14 01:01S 19°30' W 084°54'8 8.1 150 / 121017.0 21.3 23.1
2017-May-14 00:00S 19°24' W 085°00'0 0.0 140 / 141016.6 21.4 23.1
2017-May-13 23:00S 19°24' W 085°00'0 0.0 160 / 71016.2 21.5 23.1
2017-May-13 22:00S 19°24' W 085°00'0 0.0 140 / 151015.6 21.5 23.1
2017-May-13 21:00S 19°24' W 085°00'0 0.0 150 / 111016.0 21.6 23.2
2017-May-13 20:00S 19°24' W 085°00'0 0.0 150 / 111016.4 21.7 23.2
2017-May-13 19:00S 19°24' W 085°00'0 0.0 110 / 91017.1 21.3 23.1
2017-May-13 18:00S 19°24' W 085°00'8 8.2 130 / 81017.5 21.5 23.2
2017-May-13 17:00S 19°18' W 085°06'0 0.0 120 / 81018.0 21.3 23.1
2017-May-13 16:00S 19°18' W 085°06'0 0.0 100 / 111018.3 21.4 23.1
2017-May-13 15:00S 19°18' W 085°06'0 0.0 100 / 131018.0 21.4 23.1
2017-May-13 14:00S 19°18' W 085°06'0 0.0 090 / 141017.5 21.4 23.1
2017-May-13 13:00S 19°18' W 085°06'0 0.0 110 / 131017.1 21.4 23.1
2017-May-13 12:00S 19°18' W 085°06'0 0.0 130 / 51016.510.8 21.416.223.0
2017-May-13 11:00S 19°18' W 085°06'6 5.7 110 / 151015.8 21.3 23.0
2017-May-13 10:00S 19°18' W 085°00'6 5.7 110 / 111015.6 21.2 23.0
2017-May-13 09:00S 19°18' W 084°54'0 0.0 120 / 141015.5 21.3 23.0
2017-May-13 08:00S 19°18' W 084°54'0 0.0 130 / 151015.8 21.3 23.0
2017-May-13 07:00S 19°18' W 084°54'0 0.0 130 / 171016.0 21.5 23.0
2017-May-13 06:00S 19°18' W 084°54'0 0.0 140 / 171016.3 21.6 23.0
2017-May-13 05:00S 19°18' W 084°54'0 0.0 140 / 191016.4 21.7 23.0
2017-May-13 04:00S 19°18' W 084°54'0 0.0 140 / 171016.3 21.7 23.0
2017-May-13 03:00S 19°18' W 084°54'0 0.0 130 / 171016.1 21.6 23.1
2017-May-13 02:00S 19°18' W 084°54'0 0.0 140 / 171015.9 21.5 23.1
2017-May-13 01:00S 19°18' W 084°54'6 5.7 130 / 151015.2 21.7 23.1
2017-May-13 00:00S 19°18' W 085°00'6 6.0 160 / 141014.8 21.5 23.1
2017-May-12 23:00S 19°24' W 085°00'13 6.6 170 / 131014.5 21.9 23.1
2017-May-12 21:00S 19°36' W 084°54'0 0.0 160 / 101014.4 22.3 23.1
2017-May-12 20:00S 19°36' W 084°54'0 0.0 160 / 131014.5 22.0 23.1
2017-May-12 19:00S 19°36' W 084°54'0 0.0 180 / 131015.2 22.9 23.1
2017-May-12 18:00S 19°36' W 084°54'0 0.0 170 / 101015.9 22.1 23.1
2017-May-12 17:00S 19°36' W 084°54'0 0.0 160 / 121016.2 22.1 23.1
2017-May-12 16:00S 19°36' W 084°54'0 0.0 200 / 51016.7 21.7 23.1
2017-May-12 15:00S 19°36' W 084°54'0 0.0 190 / 51016.5 20.9 23.0
2017-May-12 14:00S 19°36' W 084°54'0 0.0 200 / 61016.0 21.8 23.0
2017-May-12 13:00S 19°36' W 084°54'0 0.0 230 / 71015.4 19.9 23.1
2017-May-12 12:00S 19°36' W 084°54'   210 / 91014.610.8 21.118.023.0
Track history (hours):
 
Tides and Currents Weather Stations Pressure Air Temp Water Temp Dewpoint Dewpoint Depression Visibility Wind Speed Wind Dir Waves Ship Positions

Oceanographic research ship Ron Brown (USA)

Detailed information on ship capabilities available from University of Delaware's Ocean Information Center.

Owner: UNIVERSITY OF SOUTHERN CALIFORNIA, TERMINAL ISLAND, CA. More information available from US FCC via Universal Licensing System and Coast Guard Vessel Documentation Center.

Last reported at 2017-May-22 11:58 UTC. Time now 2017-May-25 18:11 UTC.
Position S 18°24' W 070°18'.

Type: Other ship. MMSI: 368996000.

Wind from 080 at 1 knots

Barometer 1014.6 mb
Air temperature 17.8 ° C

Date/timePositionNaut miles runAvg speedWind from/ knotsBaromVisibWave heightAir tempDewpointWater temp
2017-May-22 11:58S 18°24' W 070°18'0 0.0 080 / 11014.6 17.8
2017-May-22 10:59S 18°24' W 070°18'0 0.0 170 / 21014.4 17.9
2017-May-22 10:00S 18°24' W 070°18'0 0.0 020 / 41013.8 18.0
2017-May-22 08:49S 18°24' W 070°18'0 0.0 120 / 71013.8 18.4
2017-May-22 07:50S 18°24' W 070°18'0 0.0 180 / 41015.1 18.1
2017-May-22 06:51S 18°24' W 070°18'0 0.0 230 / 21014.8 18.6
2017-May-22 05:52S 18°24' W 070°18'0 0.0 190 / 51014.9 18.7
2017-May-22 04:53S 18°24' W 070°18'0 0.0 160 / 21015.5 19.1
2017-May-22 03:53S 18°24' W 070°18'0 0.0 110 / 41016.7 18.4
2017-May-22 02:54S 18°24' W 070°18'0 0.0 290 / 21017.5 18.0
2017-May-22 01:55S 18°24' W 070°18'0 0.0 040 / 11017.0 18.3
2017-May-22 00:56S 18°24' W 070°18'0 0.0 360 / 31016.4 18.0
2017-May-21 22:57S 18°24' W 070°18'0 0.0 200 / 11014.8 17.7
2017-May-21 21:58S 18°24' W 070°18'0 0.0 230 / 31013.5 18.0
2017-May-21 20:59S 18°24' W 070°18'0 0.0 250 / 41012.9 18.8
2017-May-21 20:00S 18°24' W 070°18'0 0.0 220 / 61012.1 18.1
2017-May-21 18:49S 18°24' W 070°18'0 0.0 220 / 61012.1 18.7
2017-May-21 17:50S 18°24' W 070°18'0 0.0 230 / 41012.6 19.0
2017-May-21 16:51S 18°24' W 070°18'0 0.0 250 / 21013.4 20.4
2017-May-21 15:52S 18°24' W 070°18'0 0.0 250 / 21013.8 18.9
2017-May-21 14:52S 18°24' W 070°18'0 0.0 250 / 21014.1 18.7
2017-May-21 13:53S 18°24' W 070°18'0 0.0 250 / 11014.0 17.6
2017-May-21 12:54S 18°24' W 070°18'0 0.0 110 / 51013.8 18.3
2017-May-21 11:55S 18°24' W 070°18'0 0.0 130 / 51012.9 17.6
2017-May-21 10:56S 18°24' W 070°18'0 0.0 130 / 51012.3 17.3
2017-May-21 09:56S 18°24' W 070°18'0 0.0 150 / 71012.0 16.9
2017-May-21 08:57S 18°24' W 070°18'0 0.0 140 / 71012.4 17.1
2017-May-21 07:58S 18°24' W 070°18'0 0.0 120 / 61012.9 17.6
2017-May-21 06:59S 18°24' W 070°18'0 0.0 170 / 21013.9 17.5
2017-May-21 06:00S 18°24' W 070°18'0 0.0 200 / 61014.7 18.0
2017-May-21 04:49S 18°24' W 070°18'0 0.0 140 / 41015.1 18.0
2017-May-21 03:50S 18°24' W 070°18'0 0.0 110 / 51015.5 17.4
2017-May-21 02:51S 18°24' W 070°18'0 0.0 080 / 51015.9 16.9
2017-May-21 01:52S 18°24' W 070°18'0 0.0 340 / 81015.4 17.2
2017-May-21 00:53S 18°24' W 070°18'0 0.0 170 / 51015.2 17.7
2017-May-20 22:54S 18°24' W 070°18'0 0.0 190 / 141014.3 17.8
2017-May-20 21:55S 18°24' W 070°18'0 0.0 180 / 141013.5 18.1
2017-May-20 20:56S 18°24' W 070°18'0 0.0 200 / 171013.0 18.2
2017-May-20 19:57S 18°24' W 070°18'0 0.0 190 / 161012.7 18.3
2017-May-20 18:57S 18°24' W 070°18'0 0.0 190 / 141013.2 18.4
2017-May-20 17:58S 18°24' W 070°18'0 0.0 210 / 111014.0 18.4
2017-May-20 16:59S 18°24' W 070°18'0 0.0 210 / 111014.3 18.5
2017-May-20 16:00S 18°24' W 070°18'24 5.9 230 / 81014.9 18.4
2017-May-20 12:00S 18°30' W 070°42'0 0.0 060 / 91015.7 5.4 19.216.620.8
2017-May-20 11:51S 18°30' W 070°42'0 0.0 130 / 21015.7 19.1 20.8
2017-May-20 10:52S 18°30' W 070°42'0 0.0 140 / 31015.1 18.9 20.7
2017-May-20 09:53S 18°30' W 070°42'0 0.0 090 / 51014.5 19.5 20.6
2017-May-20 08:54S 18°30' W 070°42'0 0.0 140 / 81014.4 19.6 20.8
2017-May-20 07:54S 18°30' W 070°42'0 0.0 150 / 81014.9 19.5 20.9
2017-May-20 06:55S 18°30' W 070°42'0 0.0 160 / 101015.5 19.3 20.9
2017-May-20 06:00S 18°30' W 070°42'0 0.0 130 / 91015.7 5.4 19.217.121.7
2017-May-20 05:56S 18°30' W 070°42'6 5.8 150 / 101015.9 19.4 21.0
2017-May-20 04:57S 18°30' W 070°48'1111.4 150 / 91015.9 19.6 21.6
2017-May-20 03:57S 18°30' W 071°00'1111.6 160 / 101016.1 19.1 20.8
2017-May-20 02:58S 18°30' W 071°12'1111.6 130 / 101016.2 19.4 20.0
2017-May-20 01:59S 18°30' W 071°24'1111.6 140 / 101015.9 19.7 21.8
2017-May-20 01:00S 18°30' W 071°36'6 5.7 120 / 91015.2 19.7 21.9
2017-May-20 00:00S 18°30' W 071°42'1817.0 120 / 91015.2 5.4 19.916.221.9
2017-May-19 22:56S 18°36' W 072°00'1111.6 120 / 131014.4 20.1 21.9
2017-May-19 21:57S 18°36' W 072°12'6 5.8 150 / 121014.4 20.4 22.5
2017-May-19 20:58S 18°36' W 072°18'1111.6 160 / 161014.0 20.1 22.3
2017-May-19 19:59S 18°36' W 072°30'1111.4 160 / 171013.6 20.2 22.1
2017-May-19 18:59S 18°36' W 072°42'1313.1 160 / 191013.7 20.3 22.2
2017-May-19 18:00S 18°42' W 072°54'0 0.0 160 / 191014.510.8 20.316.022.2
2017-May-19 17:57S 18°42' W 072°54'1111.6 160 / 171014.2 20.3 22.2
2017-May-19 16:58S 18°42' W 073°06'1111.4 150 / 181015.3 20.3 22.2
2017-May-19 15:58S 18°42' W 073°18'1313.1 160 / 181015.6 20.3 21.6
2017-May-19 14:59S 18°48' W 073°30'1714.8 160 / 201016.0 19.8 21.4
2017-May-19 13:50S 18°48' W 073°48'6 5.7 140 / 201015.4 20.0 21.9
2017-May-19 12:50S 18°48' W 073°54'1315.4 140 / 171015.3 20.0 21.7
2017-May-19 12:00S 18°42' W 074°06'0 0.0 150 / 191014.510.8 20.116.621.8
2017-May-19 11:51S 18°42' W 074°06'1313.1 150 / 201014.7 20.1 21.8
2017-May-19 10:52S 18°48' W 074°18'1111.6 150 / 211013.8 19.7 21.6
2017-May-19 09:53S 18°48' W 074°30'1111.4 150 / 231013.5 19.7 22.0
2017-May-19 08:53S 18°48' W 074°42'1111.6 150 / 191013.9 19.3 21.9
2017-May-19 07:54S 18°48' W 074°54'6 5.8 140 / 221014.2 19.9 21.8
2017-May-19 06:55S 18°48' W 075°00'1112.4 140 / 221014.3 19.9 22.0
2017-May-19 06:00S 18°48' W 075°12'0 0.0 140 / 241014.8 5.4 19.915.722.1
2017-May-19 05:55S 18°48' W 075°12'1111.6 130 / 201014.7 20.1 21.7
2017-May-19 04:56S 18°48' W 075°24'1313.1 130 / 221015.3 20.1 21.7
2017-May-19 03:57S 18°54' W 075°36'1111.5 140 / 221015.8 20.2 21.8
2017-May-19 02:58S 18°54' W 075°48'1111.4 140 / 221015.9 20.3 22.2
2017-May-19 01:58S 18°54' W 076°00'1111.5 140 / 261015.7 20.3 22.2
2017-May-19 00:59S 18°54' W 076°12'1111.5 140 / 251015.2 20.3 22.0
2017-May-19 00:00S 18°54' W 076°24'1110.8 150 / 241015.0 5.4 20.515.022.1
2017-May-18 22:57S 18°54' W 076°36'8 8.4 150 / 261014.7 20.3 22.0
2017-May-18 21:58S 19°00' W 076°42'1111.3 140 / 221015.0 20.4 22.0
2017-May-18 20:58S 19°00' W 076°54'1111.5 140 / 221015.1 20.5 22.1
2017-May-18 19:59S 19°00' W 077°06'1111.5 140 / 221015.3 20.5 22.1
2017-May-18 19:00S 19°00' W 077°18'1111.3 120 / 201015.9 20.6 22.3
2017-May-18 18:00S 19°00' W 077°30'1111.3 130 / 191016.0 20.7 22.2
2017-May-18 17:00S 19°00' W 077°42'1111.3 130 / 221016.7 20.7 22.4
2017-May-18 16:00S 19°00' W 077°54'8 8.3 130 / 221017.6 20.6 22.4
2017-May-18 15:00S 19°06' W 078°00'1111.3 140 / 231018.0 20.6 22.5
2017-May-18 14:00S 19°06' W 078°12'1111.3 130 / 201018.1 20.7 22.6
2017-May-18 13:00S 19°06' W 078°24'1111.3 140 / 191017.9 20.8 22.5
2017-May-18 12:00S 19°06' W 078°36'1111.3 130 / 191017.310.8 20.614.722.5
2017-May-18 11:00S 19°06' W 078°48'1111.3 130 / 231017.1 20.5 22.6
2017-May-18 10:00S 19°06' W 079°00'1312.8 130 / 211016.4 20.3 22.5
2017-May-18 09:00S 19°12' W 079°12'1111.3 130 / 221016.8 20.3 22.5
2017-May-18 08:00S 19°12' W 079°24'1111.3 130 / 211016.7 20.3 22.5
2017-May-18 07:00S 19°12' W 079°36'1111.3 120 / 191017.5 20.5 22.5
2017-May-18 06:00S 19°12' W 079°48'1111.3 130 / 201018.1 20.5 22.4
2017-May-18 05:00S 19°12' W 080°00'1111.3 130 / 191018.4 20.6 22.7
2017-May-18 04:00S 19°12' W 080°12'1312.8 130 / 201018.7 20.5 22.8
2017-May-18 03:00S 19°18' W 080°24'1111.3 130 / 211018.6 20.7 22.9
2017-May-18 02:00S 19°18' W 080°36'1111.3 140 / 221018.4 20.7 22.7
2017-May-18 01:00S 19°18' W 080°48'1111.3 150 / 221018.2 20.8 22.7
2017-May-18 00:00S 19°18' W 081°00'1111.3 150 / 221017.8 20.8 22.7
2017-May-17 23:00S 19°18' W 081°12'1111.3 150 / 161017.4 20.9 22.7
2017-May-17 22:00S 19°18' W 081°24'1111.3 140 / 171017.0 21.1 23.0
2017-May-17 21:00S 19°18' W 081°36'1312.8 140 / 171017.0 21.2 22.8
2017-May-17 20:00S 19°24' W 081°48'6 5.7 140 / 161017.4 20.9 22.5
2017-May-17 19:00S 19°24' W 081°54'1111.3 130 / 151017.9 20.9 22.6
2017-May-17 18:00S 19°24' W 082°06'1111.3 120 / 161018.7 21.0 22.6
2017-May-17 17:00S 19°24' W 082°18'1111.3 120 / 151019.0 21.0 22.6
2017-May-17 16:00S 19°24' W 082°30'1111.3 120 / 161019.7 21.0 22.2
2017-May-17 15:00S 19°24' W 082°42'1111.3 120 / 161020.0 20.9 22.0
2017-May-17 14:00S 19°24' W 082°54'1111.3 120 / 161019.5 21.0 22.0
2017-May-17 13:00S 19°24' W 083°06'8 8.2 130 / 181019.2 20.9 22.1
2017-May-17 12:00S 19°30' W 083°12'1111.3 130 / 191018.010.8 20.615.222.0
2017-May-17 11:00S 19°30' W 083°24'1111.3 110 / 171017.4 20.6 22.3
2017-May-17 10:00S 19°30' W 083°36'1111.3 140 / 161017.2 20.6 22.3
2017-May-17 09:00S 19°30' W 083°48'1111.3 130 / 181017.5 20.8 22.3
2017-May-17 08:00S 19°30' W 084°00'1312.8 130 / 201017.6 20.7 22.3
2017-May-17 07:00S 19°36' W 084°12'1111.3 140 / 171017.9 21.0 22.3
2017-May-17 06:00S 19°36' W 084°24'1111.3 130 / 201018.3 21.0 22.6
2017-May-17 05:00S 19°36' W 084°36'1212.0 120 / 211018.8 21.0 22.6
2017-May-17 04:00S 19°24' W 084°36'6 6.0 110 / 231019.1 20.8 22.4
2017-May-17 03:00S 19°18' W 084°36'8 8.3 110 / 141019.1 21.0 22.4
2017-May-17 02:00S 19°12' W 084°42'1111.3 110 / 191018.7 21.1 22.5
2017-May-17 01:00S 19°12' W 084°54'1111.3 120 / 141018.2 21.1 22.9
2017-May-17 00:00S 19°12' W 085°06'1111.3 150 / 91017.9 20.8 23.0
2017-May-16 23:00S 19°12' W 085°18'1312.8 110 / 141017.3 20.6 22.6
2017-May-16 22:00S 19°18' W 085°06'8 8.2 120 / 91017.4 21.1 22.9
2017-May-16 21:00S 19°24' W 085°00'0 0.0 100 / 101017.3 20.3 23.0
2017-May-16 20:00S 19°24' W 085°00'6 5.7 080 / 171017.8 20.8 23.0
2017-May-16 19:00S 19°24' W 085°06'0 0.0 120 / 101018.4 21.6 22.9
2017-May-16 18:00S 19°24' W 085°06'0 0.0 140 / 131019.210.8 21.518.023.0
2017-May-16 17:00S 19°24' W 085°06'0 0.0 120 / 101019.9 21.6 22.9
2017-May-16 16:00S 19°24' W 085°06'0 0.0 130 / 111020.5 21.5 22.8
2017-May-16 15:00S 19°24' W 085°06'0 0.0 130 / 141020.4 21.5 22.8
2017-May-16 14:00S 19°24' W 085°06'0 0.0 110 / 141020.2 21.5 22.8
2017-May-16 13:00S 19°24' W 085°06'6 5.7 120 / 141019.5 21.3 22.8
2017-May-16 12:00S 19°24' W 085°00'0 0.0 080 / 131018.6 20.5 22.8
2017-May-16 11:00S 19°24' W 085°00'0 0.0 130 / 81018.3 20.2 22.8
2017-May-16 10:00S 19°24' W 085°00'0 0.0 140 / 91018.6 20.4 22.8
2017-May-16 09:00S 19°24' W 085°00'0 0.0 100 / 101018.5 20.1 22.8
2017-May-16 08:00S 19°24' W 085°00'0 0.0 130 / 141018.8 20.2 22.8
2017-May-16 07:00S 19°24' W 085°00'0 0.0 110 / 101019.0 21.2 22.8
2017-May-16 06:00S 19°24' W 085°00'0 0.0 100 / 111019.5 21.2 22.8
2017-May-16 05:00S 19°24' W 085°00'0 0.0 120 / 131019.8 21.3 22.8
2017-May-16 04:00S 19°24' W 085°00'0 0.0 110 / 141019.4 21.3 22.8
2017-May-16 03:00S 19°24' W 085°00'0 0.0 110 / 151019.8 21.4 22.8
2017-May-16 02:00S 19°24' W 085°00'6 6.0 120 / 121019.5 21.3 22.8
2017-May-16 01:00S 19°30' W 085°00'8 8.2 120 / 131018.7 21.2 23.1
2017-May-16 00:00S 19°36' W 084°54'6 6.0 120 / 131018.7 5.4 21.317.523.0
2017-May-15 23:00S 19°42' W 084°54'0 0.0 120 / 121018.4 21.3 23.0
2017-May-15 22:00S 19°42' W 084°54'0 0.0 120 / 111018.0 21.5 23.0
2017-May-15 21:00S 19°42' W 084°54'0 0.0 130 / 131018.0 21.6 23.0
2017-May-15 20:00S 19°42' W 084°54'0 0.0 120 / 121018.2 21.7 23.0
2017-May-15 19:00S 19°42' W 084°54'6 5.6 120 / 101018.9 22.5 23.0
2017-May-15 18:00S 19°42' W 084°48'0 0.0 120 / 151019.4 22.8 23.0
2017-May-15 17:00S 19°42' W 084°48'0 0.0 110 / 131020.1 22.8 23.0
2017-May-15 16:00S 19°42' W 084°48'0 0.0 110 / 171020.8 22.6 22.9
2017-May-15 15:00S 19°42' W 084°48'6 5.6 150 / 101020.9 21.7 22.9
2017-May-15 14:00S 19°42' W 084°54'6 5.6 110 / 171020.4 21.5 22.9
2017-May-15 13:00S 19°42' W 084°48'0 0.0 100 / 141020.1 21.1 22.9
2017-May-15 12:00S 19°42' W 084°48'0 0.0 090 / 201019.0 5.4 20.517.822.9
2017-May-15 11:00S 19°42' W 084°48'0 0.0 110 / 181019.0 21.0 22.9
2017-May-15 10:00S 19°42' W 084°48'0 0.0 110 / 171018.8 21.2 23.0
2017-May-15 09:00S 19°42' W 084°48'0 0.0 130 / 151019.1 21.2 23.0
2017-May-15 08:00S 19°42' W 084°48'0 0.0 130 / 181019.4 20.7 23.0
2017-May-15 07:00S 19°42' W 084°48'6 5.6 120 / 161019.8 21.2 23.0
2017-May-15 06:00S 19°42' W 084°54'6 5.6 120 / 191020.1 5.4 21.516.723.0
2017-May-15 05:00S 19°42' W 084°48'0 0.0 150 / 171020.6 20.5 23.0
2017-May-15 04:00S 19°42' W 084°48'0 0.0 110 / 161020.7 21.4 23.0
2017-May-15 03:00S 19°42' W 084°48'0 0.0 120 / 171020.5 21.4 23.0
2017-May-15 02:00S 19°42' W 084°48'6 5.6 140 / 141020.1 21.2 23.0
2017-May-15 01:00S 19°42' W 084°54'0 0.0 120 / 131019.4 21.7 23.0
2017-May-15 00:00S 19°42' W 084°54'0 0.0 120 / 121018.7 21.8 23.0
2017-May-14 23:00S 19°42' W 084°54'6 6.0 110 / 131018.2 21.6 23.0
2017-May-14 22:00S 19°36' W 084°54'0 0.0 100 / 101017.9 21.8 23.0
2017-May-14 21:00S 19°36' W 084°54'0 0.0 110 / 131017.7 21.9 23.1
2017-May-14 20:00S 19°36' W 084°54'6 6.0 110 / 91017.8 21.7 23.1
2017-May-14 19:00S 19°42' W 084°54'0 0.0 120 / 121018.5 22.1 23.0
2017-May-14 18:00S 19°42' W 084°54'6 5.6 110 / 161018.8 21.5 22.6
2017-May-14 17:00S 19°42' W 084°48'6 6.0 120 / 91019.3 20.9 23.0
2017-May-14 16:00S 19°36' W 084°48'6 2.8 130 / 201019.5 20.5 23.0
2017-May-14 14:00S 19°36' W 084°54'0 0.0 130 / 181018.8 21.5 23.0
2017-May-14 13:00S 19°36' W 084°54'0 0.0 110 / 171018.0 21.7 23.0
2017-May-14 12:00S 19°36' W 084°54'0 0.0 130 / 171017.5 21.3 23.0
2017-May-14 11:00S 19°36' W 084°54'0 0.0 130 / 121017.0 20.4 23.0
2017-May-14 10:00S 19°36' W 084°54'0 0.0 110 / 161016.7 21.2 23.0
2017-May-14 09:00S 19°36' W 084°54'0 0.0 170 / 141016.7 20.7 23.0
2017-May-14 08:00S 19°36' W 084°54'0 0.0 140 / 141017.1 21.3 23.0
2017-May-14 07:00S 19°36' W 084°54'0 0.0 150 / 171017.7 21.2 23.0
2017-May-14 06:00S 19°36' W 084°54'0 0.0 140 / 151017.9 21.1 23.0
2017-May-14 05:00S 19°36' W 084°54'0 0.0 150 / 181018.0 21.1 23.0
2017-May-14 04:00S 19°36' W 084°54'0 0.0 150 / 151017.9 21.2 23.0
2017-May-14 03:00S 19°36' W 084°54'0 0.0 150 / 141017.9 21.3 23.0
2017-May-14 02:00S 19°36' W 084°54'6 6.1 120 / 141017.6 21.3 23.0
2017-May-14 01:01S 19°30' W 084°54'8 8.1 150 / 121017.0 21.3 23.1
2017-May-14 00:00S 19°24' W 085°00'0 0.0 140 / 141016.6 21.4 23.1
2017-May-13 23:00S 19°24' W 085°00'0 0.0 160 / 71016.2 21.5 23.1
2017-May-13 22:00S 19°24' W 085°00'0 0.0 140 / 151015.6 21.5 23.1
2017-May-13 21:00S 19°24' W 085°00'0 0.0 150 / 111016.0 21.6 23.2
2017-May-13 20:00S 19°24' W 085°00'0 0.0 150 / 111016.4 21.7 23.2
2017-May-13 19:00S 19°24' W 085°00'0 0.0 110 / 91017.1 21.3 23.1
2017-May-13 18:00S 19°24' W 085°00'8 8.2 130 / 81017.5 21.5 23.2
2017-May-13 17:00S 19°18' W 085°06'0 0.0 120 / 81018.0 21.3 23.1
2017-May-13 16:00S 19°18' W 085°06'0 0.0 100 / 111018.3 21.4 23.1
2017-May-13 15:00S 19°18' W 085°06'0 0.0 100 / 131018.0 21.4 23.1
2017-May-13 14:00S 19°18' W 085°06'0 0.0 090 / 141017.5 21.4 23.1
2017-May-13 13:00S 19°18' W 085°06'0 0.0 110 / 131017.1 21.4 23.1
2017-May-13 12:00S 19°18' W 085°06'0 0.0 130 / 51016.510.8 21.416.223.0
2017-May-13 11:00S 19°18' W 085°06'6 5.7 110 / 151015.8 21.3 23.0
2017-May-13 10:00S 19°18' W 085°00'6 5.7 110 / 111015.6 21.2 23.0
2017-May-13 09:00S 19°18' W 084°54'0 0.0 120 / 141015.5 21.3 23.0
2017-May-13 08:00S 19°18' W 084°54'0 0.0 130 / 151015.8 21.3 23.0
2017-May-13 07:00S 19°18' W 084°54'0 0.0 130 / 171016.0 21.5 23.0
2017-May-13 06:00S 19°18' W 084°54'0 0.0 140 / 171016.3 21.6 23.0
2017-May-13 05:00S 19°18' W 084°54'0 0.0 140 / 191016.4 21.7 23.0
2017-May-13 04:00S 19°18' W 084°54'0 0.0 140 / 171016.3 21.7 23.0
2017-May-13 03:00S 19°18' W 084°54'0 0.0 130 / 171016.1 21.6 23.1
2017-May-13 02:00S 19°18' W 084°54'0 0.0 140 / 171015.9 21.5 23.1
2017-May-13 01:00S 19°18' W 084°54'6 5.7 130 / 151015.2 21.7 23.1
2017-May-13 00:00S 19°18' W 085°00'6 6.0 160 / 141014.8 21.5 23.1
2017-May-12 23:00S 19°24' W 085°00'13 6.6 170 / 131014.5 21.9 23.1
2017-May-12 21:00S 19°36' W 084°54'0 0.0 160 / 101014.4 22.3 23.1
2017-May-12 20:00S 19°36' W 084°54'0 0.0 160 / 131014.5 22.0 23.1
2017-May-12 19:00S 19°36' W 084°54'0 0.0 180 / 131015.2 22.9 23.1
2017-May-12 18:00S 19°36' W 084°54'0 0.0 170 / 101015.9 22.1 23.1
2017-May-12 17:00S 19°36' W 084°54'0 0.0 160 / 121016.2 22.1 23.1
2017-May-12 16:00S 19°36' W 084°54'0 0.0 200 / 51016.7 21.7 23.1
2017-May-12 15:00S 19°36' W 084°54'0 0.0 190 / 51016.5 20.9 23.0
2017-May-12 14:00S 19°36' W 084°54'0 0.0 200 / 61016.0 21.8 23.0
2017-May-12 13:00S 19°36' W 084°54'0 0.0 230 / 71015.4 19.9 23.1
2017-May-12 12:00S 19°36' W 084°54'   210 / 91014.610.8 21.118.023.0

Dump ship's entire track history